createdAt,value
2022-11-17T00:00:33.677Z,20.40
2022-11-17T00:03:04.939Z,21.10
2022-11-17T00:05:32.522Z,22.20
2022-11-17T00:08:00.075Z,23.70
2022-11-17T00:10:27.636Z,22.20
2022-11-17T00:12:55.232Z,23.50
2022-11-17T00:15:23.012Z,22.80
2022-11-17T00:17:51.433Z,24.90
2022-11-17T00:20:19.140Z,23.20
2022-11-17T00:22:46.770Z,21.10
2022-11-17T00:25:14.470Z,21.20
2022-11-17T00:27:42.070Z,21.80
2022-11-17T00:30:09.986Z,20.30
2022-11-17T00:32:37.657Z,21.40
2022-11-17T00:35:06.203Z,22.60
2022-11-17T00:37:37.038Z,20.60
2022-11-17T00:40:05.873Z,20.70
2022-11-17T00:42:33.473Z,23.00
2022-11-17T00:45:01.116Z,21.50
2022-11-17T00:47:28.660Z,20.20
2022-11-17T00:49:56.229Z,21.80
2022-11-17T00:52:23.775Z,23.20
2022-11-17T00:54:51.343Z,22.40
2022-11-17T00:57:19.018Z,22.60
2022-11-17T00:59:46.609Z,22.10
2022-11-17T01:02:14.182Z,23.70
2022-11-17T01:04:41.820Z,22.30
2022-11-17T01:07:09.600Z,20.80
2022-11-17T01:09:37.211Z,20.90
2022-11-17T01:12:05.015Z,21.40
2022-11-17T01:14:32.560Z,24.20
2022-11-17T01:17:00.279Z,22.00
2022-11-17T01:19:28.150Z,21.70
2022-11-17T01:21:55.837Z,23.60
2022-11-17T01:24:23.448Z,22.50
2022-11-17T01:26:51.068Z,25.40
2022-11-17T01:29:18.978Z,20.70
2022-11-17T01:31:50.726Z,23.70
2022-11-17T01:34:18.813Z,22.70
2022-11-17T01:36:46.426Z,24.60
2022-11-17T01:39:14.221Z,23.90
2022-11-17T01:41:41.828Z,27.80
2022-11-17T01:44:43.797Z,23.50
2022-11-17T01:49:44.482Z,24.50
2022-11-17T01:52:13.068Z,25.50
2022-11-17T01:54:43.349Z,26.40
2022-11-17T01:57:22.039Z,25.40
2022-11-17T01:59:56.925Z,30.10
2022-11-17T02:02:24.498Z,27.60
2022-11-17T02:05:12.415Z,23.10
2022-11-17T02:07:42.871Z,28.50
2022-11-17T02:10:10.944Z,25.40
2022-11-17T02:12:38.811Z,25.90
2022-11-17T02:15:07.074Z,28.90
2022-11-17T02:17:43.927Z,26.40
2022-11-17T02:20:22.593Z,26.20
2022-11-17T02:23:11.479Z,27.90
2022-11-17T02:25:42.175Z,26.40
2022-11-17T02:28:15.403Z,30.00
2022-11-17T02:30:58.456Z,28.50
2022-11-17T02:33:37.101Z,28.40
2022-11-17T02:36:14.407Z,26.50
2022-11-17T02:38:53.003Z,27.60
2022-11-17T02:41:29.574Z,26.00
2022-11-17T02:44:04.033Z,25.50
2022-11-17T02:46:46.842Z,28.30
2022-11-17T02:49:26.278Z,25.20
2022-11-17T02:51:58.687Z,28.30
2022-11-17T02:54:29.451Z,28.20
2022-11-17T02:56:57.026Z,28.10
2022-11-17T02:59:33.512Z,25.00
2022-11-17T03:02:07.276Z,24.00
2022-11-17T03:04:59.916Z,22.50
2022-11-17T03:07:46.314Z,27.80
2022-11-17T03:10:25.650Z,26.80
2022-11-17T03:13:04.131Z,28.40
2022-11-17T03:15:43.135Z,25.30
2022-11-17T03:18:49.199Z,26.60
2022-11-17T03:21:26.748Z,22.00
2022-11-17T03:24:21.212Z,24.50
2022-11-17T03:26:56.439Z,22.60
2022-11-17T03:29:27.706Z,26.80
2022-11-17T03:32:00.556Z,35.80
2022-11-17T03:34:33.037Z,29.40
2022-11-17T03:37:05.842Z,22.00
2022-11-17T03:39:41.390Z,28.30
2022-11-17T03:42:18.669Z,26.30
2022-11-17T03:44:52.795Z,25.80
2022-11-17T03:47:23.723Z,23.70
2022-11-17T03:49:54.878Z,29.20
2022-11-17T03:52:22.840Z,24.80
2022-11-17T03:54:51.331Z,24.90
2022-11-17T03:57:27.667Z,26.70
2022-11-17T03:59:59.187Z,29.00
2022-11-17T04:04:54.807Z,26.50
2022-11-17T04:07:22.425Z,25.20
2022-11-17T04:09:50.035Z,30.30
2022-11-17T04:12:17.610Z,24.90
2022-11-17T04:14:45.163Z,26.20
2022-11-17T04:17:12.892Z,24.10
2022-11-17T04:19:40.444Z,26.80
2022-11-17T04:22:08.091Z,24.40
2022-11-17T04:24:35.654Z,24.50
2022-11-17T04:27:03.212Z,26.60
2022-11-17T04:29:31.024Z,26.30
2022-11-17T04:31:58.620Z,25.60
2022-11-17T04:34:26.594Z,25.20
2022-11-17T04:36:54.148Z,22.40
2022-11-17T04:39:21.733Z,23.50
2022-11-17T04:41:49.282Z,23.60
2022-11-17T04:44:17.842Z,24.60
2022-11-17T04:46:45.727Z,23.50
2022-11-17T04:49:15.256Z,26.90
2022-11-17T04:51:42.922Z,24.70
2022-11-17T04:54:13.142Z,26.00
2022-11-17T04:56:41.197Z,25.90
2022-11-17T04:59:09.177Z,22.80
2022-11-17T05:01:37.207Z,23.00
2022-11-17T05:04:09.971Z,24.20
2022-11-17T05:06:45.284Z,24.90
2022-11-17T05:09:15.718Z,25.30
2022-11-17T05:11:43.978Z,25.50
2022-11-17T05:14:12.968Z,27.50
2022-11-17T05:16:41.388Z,26.50
2022-11-17T05:19:14.515Z,22.60
2022-11-17T05:21:42.495Z,23.60
2022-11-17T05:24:10.244Z,26.10
2022-11-17T05:26:38.364Z,20.80
2022-11-17T05:29:07.731Z,24.40
2022-11-17T05:31:35.625Z,24.60
2022-11-17T05:34:05.067Z,24.60
2022-11-17T05:36:33.740Z,24.10
2022-11-17T05:39:01.803Z,23.00
2022-11-17T05:41:29.474Z,21.40
2022-11-17T05:43:57.929Z,24.40
2022-11-17T05:46:26.212Z,23.40
2022-11-17T05:48:54.089Z,21.90
2022-11-17T05:51:24.095Z,17.40
2022-11-17T05:53:51.673Z,26.40
2022-11-17T05:56:45.113Z,27.70
2022-11-17T05:59:36.619Z,24.90
2022-11-17T06:02:11.496Z,26.00
2022-11-17T06:04:39.611Z,26.00
2022-11-17T06:07:07.566Z,27.60
2022-11-17T06:09:38.941Z,23.00
2022-11-17T06:12:06.829Z,27.90
2022-11-17T06:14:35.372Z,25.30
2022-11-17T06:17:09.346Z,21.30
2022-11-17T06:19:46.637Z,22.30
2022-11-17T06:22:14.577Z,23.50
2022-11-17T06:24:43.732Z,24.10
2022-11-17T06:27:15.005Z,26.30
2022-11-17T06:29:44.958Z,21.10
2022-11-17T06:32:14.910Z,23.70
2022-11-17T06:34:47.968Z,22.40
2022-11-17T06:37:18.109Z,24.80
2022-11-17T06:39:45.807Z,23.20
2022-11-17T06:42:13.379Z,21.60
2022-11-17T06:44:40.987Z,27.20
2022-11-17T06:47:08.584Z,27.90
2022-11-17T06:49:36.163Z,26.20
2022-11-17T06:52:03.819Z,25.60
2022-11-17T06:54:31.511Z,25.00
2022-11-17T06:56:59.201Z,21.80
2022-11-17T06:59:26.914Z,24.00
2022-11-17T07:01:54.564Z,23.00
2022-11-17T07:04:22.230Z,23.20
2022-11-17T07:06:50.332Z,22.90
2022-11-17T07:09:18.126Z,23.30
2022-11-17T07:11:45.790Z,23.10
2022-11-17T07:14:13.449Z,22.50
2022-11-17T07:16:42.212Z,22.00
2022-11-17T07:19:10.643Z,26.60
2022-11-17T07:21:38.457Z,24.40
2022-11-17T07:24:06.428Z,22.20
2022-11-17T07:26:34.166Z,23.80
2022-11-17T07:29:04.487Z,20.50
2022-11-17T07:31:35.079Z,21.00
2022-11-17T07:34:06.128Z,18.20
2022-11-17T07:36:33.729Z,22.00
2022-11-17T07:39:01.441Z,20.70
2022-11-17T07:41:29.109Z,20.70
2022-11-17T07:43:56.776Z,18.90
2022-11-17T07:46:24.911Z,18.40
2022-11-17T07:48:55.727Z,19.90
2022-11-17T07:51:23.421Z,21.50
2022-11-17T07:53:51.061Z,25.50
2022-11-17T07:56:18.853Z,18.80
2022-11-17T07:58:46.479Z,22.20
2022-11-17T08:01:15.041Z,22.70
2022-11-17T08:03:45.918Z,23.90
2022-11-17T08:06:13.708Z,22.20
2022-11-17T08:08:41.446Z,23.60
2022-11-17T08:11:11.797Z,22.60
2022-11-17T08:13:40.571Z,23.90
2022-11-17T08:16:10.154Z,20.70
2022-11-17T08:18:39.406Z,25.30
2022-11-17T08:21:13.016Z,21.10
2022-11-17T08:23:41.958Z,20.20
2022-11-17T08:26:11.863Z,21.20
2022-11-17T08:28:39.877Z,20.90
2022-11-17T08:31:08.590Z,18.10
2022-11-17T08:33:36.359Z,21.20
2022-11-17T08:36:05.410Z,20.90
2022-11-17T08:38:34.357Z,18.20
2022-11-17T08:41:07.827Z,16.90
2022-11-17T08:43:35.955Z,19.60
2022-11-17T08:46:04.171Z,20.80
2022-11-17T08:48:31.884Z,19.60
2022-11-17T08:51:05.525Z,18.30
2022-11-17T08:53:33.240Z,14.70
2022-11-17T08:56:00.907Z,17.20
2022-11-17T08:58:28.597Z,18.90
2022-11-17T09:01:00.950Z,16.00
2022-11-17T09:03:31.779Z,17.00
2022-11-17T09:05:59.459Z,16.40
2022-11-17T09:08:56.967Z,14.20
2022-11-17T09:11:15.369Z,15.10
2022-11-17T09:13:43.037Z,15.80
2022-11-17T09:16:11.978Z,16.40
2022-11-17T09:18:41.137Z,10.90
2022-11-17T09:21:15.957Z,13.50
2022-11-17T09:23:44.735Z,13.10
2022-11-17T09:26:15.681Z,15.40
2022-11-17T09:28:45.409Z,14.40
2022-11-17T09:31:18.228Z,16.10
2022-11-17T09:33:46.225Z,15.30
2022-11-17T09:36:16.076Z,13.90
2022-11-17T09:38:44.075Z,15.70
2022-11-17T09:41:38.603Z,14.80
2022-11-17T09:44:15.110Z,15.50
2022-11-17T09:47:01.075Z,16.30
2022-11-17T09:49:53.640Z,15.50
2022-11-17T09:52:43.719Z,15.40
2022-11-17T09:55:22.535Z,14.40
2022-11-17T09:58:01.001Z,14.30
2022-11-17T10:00:29.044Z,14.80
2022-11-17T10:02:56.674Z,17.00
2022-11-17T10:05:33.854Z,12.50
2022-11-17T10:08:12.770Z,15.20
2022-11-17T10:10:47.083Z,14.30
2022-11-17T10:13:33.121Z,14.30
2022-11-17T10:16:05.071Z,12.60
2022-11-17T10:18:38.090Z,13.90
2022-11-17T10:21:08.120Z,11.80
2022-11-17T10:23:46.834Z,13.80
2022-11-17T10:26:16.175Z,12.90
2022-11-17T10:28:47.445Z,13.70
2022-11-17T10:31:22.975Z,13.60
2022-11-17T10:33:53.017Z,14.90
2022-11-17T10:36:34.876Z,17.10
2022-11-17T10:39:03.476Z,13.20
2022-11-17T10:41:39.207Z,13.60
2022-11-17T10:44:21.714Z,13.80
2022-11-17T10:47:02.592Z,13.30
2022-11-17T10:49:36.277Z,15.40
2022-11-17T10:52:09.792Z,13.00
2022-11-17T10:54:38.372Z,14.10
2022-11-17T10:57:12.395Z,13.10
2022-11-17T10:59:56.509Z,13.30
2022-11-17T11:02:39.065Z,12.20
2022-11-17T11:08:21.382Z,12.10
2022-11-17T11:11:17.801Z,11.80
2022-11-17T11:14:16.296Z,12.70
2022-11-17T11:16:48.505Z,14.20
2022-11-17T11:19:19.336Z,12.90
2022-11-17T11:22:00.825Z,11.60
2022-11-17T11:24:49.187Z,11.20
2022-11-17T11:27:50.918Z,10.80
2022-11-17T11:30:19.732Z,10.90
2022-11-17T11:33:06.133Z,12.10
2022-11-17T11:35:44.932Z,12.40
2022-11-17T11:38:30.956Z,11.00
2022-11-17T11:41:10.481Z,11.60
2022-11-17T11:43:52.318Z,11.90
2022-11-17T11:46:20.563Z,13.10
2022-11-17T11:48:51.981Z,11.90
2022-11-17T11:51:28.747Z,14.10
2022-11-17T11:54:15.090Z,11.00
2022-11-17T11:56:44.239Z,11.90
2022-11-17T11:59:21.493Z,13.70
2022-11-17T12:01:55.317Z,11.10
2022-11-17T12:04:50.354Z,12.20
2022-11-17T12:07:36.214Z,11.30
2022-11-17T12:10:03.798Z,14.10
2022-11-17T12:12:39.079Z,12.40
2022-11-17T12:15:30.343Z,11.20
2022-11-17T12:18:02.437Z,13.30
2022-11-17T12:20:39.222Z,12.50
2022-11-17T12:23:28.825Z,11.10
2022-11-17T12:25:59.970Z,11.00
2022-11-17T12:28:29.427Z,12.00
2022-11-17T12:31:02.583Z,12.70
2022-11-17T12:33:51.399Z,10.30
2022-11-17T12:36:30.203Z,14.00
2022-11-17T12:39:05.033Z,10.50
2022-11-17T12:41:54.496Z,12.90
2022-11-17T12:44:37.611Z,11.70
2022-11-17T12:47:13.930Z,12.20
2022-11-17T12:49:53.520Z,12.00
2022-11-17T12:53:00.111Z,12.30
2022-11-17T12:56:05.480Z,10.20
2022-11-17T12:58:48.556Z,12.00
2022-11-17T13:01:19.774Z,13.60
2022-11-17T13:04:01.235Z,13.00
2022-11-17T13:06:35.325Z,12.50
2022-11-17T13:09:10.554Z,10.00
2022-11-17T13:11:38.321Z,11.70
2022-11-17T13:14:17.149Z,10.60
2022-11-17T13:16:51.601Z,11.30
2022-11-17T13:19:39.427Z,11.40
2022-11-17T13:22:12.990Z,13.60
2022-11-17T13:24:43.711Z,10.40
2022-11-17T13:27:29.911Z,11.00
2022-11-17T13:30:15.217Z,12.40
2022-11-17T13:32:43.443Z,12.60
2022-11-17T13:35:26.230Z,14.40
2022-11-17T13:38:11.906Z,10.50
2022-11-17T13:40:41.602Z,10.50
2022-11-17T13:43:18.268Z,10.00
2022-11-17T13:45:47.435Z,9.50
2022-11-17T13:48:35.763Z,14.90
2022-11-17T13:51:18.521Z,20.10
2022-11-17T13:53:50.202Z,13.00
2022-11-17T13:56:39.227Z,12.50
2022-11-17T13:59:30.228Z,10.50
2022-11-17T14:02:16.466Z,13.80
2022-11-17T14:05:07.714Z,11.80
2022-11-17T14:07:39.471Z,14.50
2022-11-17T14:10:14.558Z,12.20
2022-11-17T14:12:42.524Z,12.40
2022-11-17T14:15:37.549Z,13.50
2022-11-17T14:18:28.224Z,14.60
2022-11-17T14:21:14.175Z,13.00
2022-11-17T14:23:43.041Z,12.30
2022-11-17T14:26:27.118Z,13.60
2022-11-17T14:28:54.740Z,13.20
2022-11-17T14:31:22.362Z,16.20
2022-11-17T14:33:50.385Z,11.80
2022-11-17T14:36:18.343Z,12.80
2022-11-17T14:38:46.638Z,14.80
2022-11-17T14:41:19.107Z,15.00
2022-11-17T14:43:47.729Z,13.30
2022-11-17T14:46:26.618Z,16.00
2022-11-17T14:48:54.587Z,14.80
2022-11-17T14:51:22.314Z,15.30
2022-11-17T14:53:50.231Z,17.60
2022-11-17T14:56:19.817Z,16.90
2022-11-17T14:58:48.838Z,16.40
2022-11-17T15:01:19.232Z,14.80
2022-11-17T15:03:46.901Z,14.10
2022-11-17T15:06:19.367Z,14.60
2022-11-17T15:08:52.717Z,23.80
2022-11-17T15:11:20.382Z,18.70
2022-11-17T15:13:48.029Z,19.20
2022-11-17T15:16:16.036Z,15.80
2022-11-17T15:18:47.907Z,19.90
2022-11-17T15:21:16.650Z,19.60
2022-11-17T15:23:44.589Z,19.20
2022-11-17T15:26:18.162Z,21.70
2022-11-17T15:28:46.698Z,21.30
2022-11-17T15:31:16.798Z,24.20
2022-11-17T15:33:46.267Z,23.10
2022-11-17T15:36:18.947Z,22.00
2022-11-17T15:38:46.820Z,23.10
2022-11-17T15:41:15.926Z,22.20
2022-11-17T15:43:44.545Z,21.30
2022-11-17T15:46:14.940Z,33.90
2022-11-17T15:48:44.055Z,34.10
2022-11-17T15:51:24.506Z,23.20
2022-11-17T15:53:56.046Z,81.50
2022-11-17T15:56:25.894Z,29.50
2022-11-17T15:59:01.971Z,24.30
2022-11-17T16:01:33.551Z,20.30
2022-11-17T16:06:31.483Z,20.70
2022-11-17T16:08:59.905Z,22.10
2022-11-17T16:11:27.917Z,22.20
2022-11-17T16:13:57.162Z,21.60
2022-11-17T16:16:30.820Z,25.80
2022-11-17T16:18:58.868Z,22.80
2022-11-17T16:21:26.955Z,20.10
2022-11-17T16:23:57.002Z,23.30
2022-11-17T16:26:26.096Z,24.10
2022-11-17T16:29:01.461Z,23.00
2022-11-17T16:31:31.833Z,26.00
2022-11-17T16:34:05.046Z,23.80
2022-11-17T16:36:37.301Z,26.40
2022-11-17T16:39:10.122Z,25.90
2022-11-17T16:41:39.764Z,24.80
2022-11-17T16:44:12.829Z,28.30
2022-11-17T16:46:45.865Z,23.20
2022-11-17T16:49:15.679Z,21.50
2022-11-17T16:51:53.480Z,23.70
2022-11-17T16:54:21.199Z,25.50
2022-11-17T16:56:49.519Z,32.10
2022-11-17T16:59:17.355Z,24.30
2022-11-17T17:01:47.944Z,22.60
2022-11-17T17:04:15.612Z,24.10
2022-11-17T17:06:44.441Z,23.70
2022-11-17T17:09:14.768Z,24.90
2022-11-17T17:14:13.430Z,22.50
2022-11-17T17:16:42.131Z,26.00
2022-11-17T17:19:11.467Z,27.80
2022-11-17T17:21:40.249Z,26.00
2022-11-17T17:24:09.237Z,26.30
2022-11-17T17:26:38.193Z,24.50
2022-11-17T17:29:06.719Z,23.90
2022-11-17T17:31:37.548Z,25.00
2022-11-17T17:34:06.586Z,24.80
2022-11-17T17:36:35.662Z,22.80
2022-11-17T17:39:03.890Z,22.30
2022-11-17T17:41:34.880Z,23.80
2022-11-17T17:44:04.837Z,21.90
2022-11-17T17:46:37.580Z,21.40
2022-11-17T17:49:06.094Z,23.60
2022-11-17T17:51:36.931Z,23.00
2022-11-17T17:54:04.645Z,25.00
2022-11-17T17:56:33.940Z,22.00
2022-11-17T17:59:01.709Z,23.60
2022-11-17T18:01:31.524Z,24.30
2022-11-17T18:04:02.212Z,23.20
2022-11-17T18:06:41.417Z,23.50
2022-11-17T18:09:10.949Z,23.40
2022-11-17T18:11:38.672Z,25.20
2022-11-17T18:14:06.281Z,21.90
2022-11-17T18:16:34.314Z,25.40
2022-11-17T18:19:04.422Z,21.60
2022-11-17T18:21:32.680Z,22.90
2022-11-17T18:24:02.291Z,19.80
2022-11-17T18:26:32.957Z,23.20
2022-11-17T18:29:19.200Z,20.70
2022-11-17T18:31:47.636Z,25.30
2022-11-17T18:34:18.688Z,22.90
2022-11-17T18:36:46.824Z,25.40
2022-11-17T18:39:15.435Z,24.60
2022-11-17T18:41:45.513Z,22.80
2022-11-17T18:44:15.200Z,27.10
2022-11-17T18:46:42.979Z,25.10
2022-11-17T18:49:10.751Z,25.20
2022-11-17T18:51:38.569Z,28.40
2022-11-17T18:54:06.495Z,25.90
2022-11-17T18:56:36.233Z,26.20
2022-11-17T18:59:06.004Z,26.70
2022-11-17T19:01:33.777Z,25.10
2022-11-17T19:04:01.506Z,27.70
2022-11-17T19:06:29.620Z,36.10
2022-11-17T19:08:58.849Z,27.40
2022-11-17T19:11:27.963Z,24.60
2022-11-17T19:13:55.663Z,23.60
2022-11-17T19:16:25.782Z,22.80
2022-11-17T19:18:55.581Z,25.60
2022-11-17T19:21:29.090Z,29.60
2022-11-17T19:23:59.264Z,32.50
2022-11-17T19:26:35.520Z,33.70
2022-11-17T19:29:11.157Z,30.90
2022-11-17T19:31:42.171Z,29.00
2022-11-17T19:34:09.793Z,32.60
2022-11-17T19:36:37.574Z,34.70
2022-11-17T19:39:05.483Z,30.00
2022-11-17T19:41:35.558Z,28.60
2022-11-17T19:44:06.411Z,24.80
2022-11-17T19:46:34.477Z,25.70
2022-11-17T19:49:03.596Z,28.40
2022-11-17T19:51:33.834Z,26.60
2022-11-17T19:54:03.282Z,26.40
2022-11-17T19:56:31.650Z,24.50
2022-11-17T19:58:59.371Z,27.00
2022-11-17T20:01:29.102Z,31.40
2022-11-17T20:03:57.960Z,27.40
2022-11-17T20:06:28.040Z,28.80
2022-11-17T20:08:56.665Z,25.60
2022-11-17T20:11:28.725Z,25.00
2022-11-17T20:13:56.623Z,24.30
2022-11-17T20:16:26.551Z,27.70
2022-11-17T20:18:56.789Z,28.00
2022-11-17T20:21:25.502Z,28.40
2022-11-17T20:23:54.602Z,29.00
2022-11-17T20:26:24.758Z,22.90
2022-11-17T20:28:54.226Z,26.40
2022-11-17T20:31:24.907Z,28.30
2022-11-17T20:33:55.148Z,30.60
2022-11-17T20:36:23.198Z,23.50
2022-11-17T20:38:55.981Z,28.60
2022-11-17T20:41:24.601Z,25.20
2022-11-17T20:43:55.015Z,28.50
2022-11-17T20:46:23.737Z,26.10
2022-11-17T20:48:53.587Z,26.20
2022-11-17T20:51:23.352Z,27.70
2022-11-17T20:53:51.425Z,25.10
2022-11-17T20:56:19.404Z,25.10
2022-11-17T20:58:47.194Z,30.40
2022-11-17T21:01:20.703Z,27.10
2022-11-17T21:03:48.476Z,26.70
2022-11-17T21:06:16.908Z,29.40
2022-11-17T21:08:45.690Z,29.00
2022-11-17T21:11:16.589Z,28.80
2022-11-17T21:13:44.310Z,31.60
2022-11-17T21:16:14.776Z,29.70
2022-11-17T21:18:47.195Z,29.40
2022-11-17T21:21:15.633Z,31.90
2022-11-17T21:23:44.085Z,31.80
2022-11-17T21:26:16.497Z,33.20
2022-11-17T21:28:44.486Z,30.20
2022-11-17T21:31:18.054Z,37.00
2022-11-17T21:33:46.780Z,32.50
2022-11-17T21:36:17.057Z,34.20
2022-11-17T21:38:45.612Z,32.10
2022-11-17T21:41:16.104Z,29.20
2022-11-17T21:43:45.995Z,28.10
2022-11-17T21:46:18.735Z,33.00
2022-11-17T21:48:46.771Z,31.80
2022-11-17T21:51:19.529Z,29.60
2022-11-17T21:53:48.026Z,28.90
2022-11-17T21:56:15.882Z,26.10
2022-11-17T21:58:43.634Z,31.50
2022-11-17T22:01:15.772Z,30.60
2022-11-17T22:03:43.484Z,28.50
2022-11-17T22:06:16.842Z,29.00
2022-11-17T22:08:45.896Z,28.20
2022-11-17T22:11:16.449Z,29.40
2022-11-17T22:13:44.095Z,33.80
2022-11-17T22:16:13.977Z,30.60
2022-11-17T22:18:41.887Z,27.10
2022-11-17T22:21:09.563Z,34.00
2022-11-17T22:23:37.216Z,32.40
2022-11-17T22:26:05.636Z,28.70
2022-11-17T22:28:33.330Z,31.00
2022-11-17T22:31:05.735Z,32.10
2022-11-17T22:33:33.529Z,29.50
2022-11-17T22:36:03.010Z,30.80
2022-11-17T22:38:30.645Z,32.90
2022-11-17T22:41:02.776Z,30.60
2022-11-17T22:43:30.565Z,30.10
2022-11-17T22:46:02.213Z,33.50
2022-11-17T22:50:58.929Z,29.80
2022-11-17T22:53:27.052Z,29.10
2022-11-17T22:55:55.010Z,31.30
2022-11-17T22:58:22.639Z,33.50
2022-11-17T23:00:50.238Z,34.00
2022-11-17T23:03:17.908Z,35.40
2022-11-17T23:05:45.574Z,36.70
2022-11-17T23:08:13.410Z,29.50
2022-11-17T23:10:41.091Z,32.80
2022-11-17T23:13:08.744Z,34.50
2022-11-17T23:15:38.768Z,32.50
2022-11-17T23:18:06.917Z,29.80
2022-11-17T23:20:36.602Z,31.60
2022-11-17T23:23:04.622Z,34.00
2022-11-17T23:25:32.273Z,30.70
2022-11-17T23:27:59.925Z,33.50
2022-11-17T23:30:27.590Z,34.60
2022-11-17T23:32:55.220Z,38.60
2022-11-17T23:35:23.239Z,33.20
2022-11-17T23:37:51.041Z,32.00
2022-11-17T23:40:18.865Z,28.20
2022-11-17T23:42:46.470Z,33.50
2022-11-17T23:45:14.166Z,33.90
2022-11-17T23:47:41.889Z,32.40
2022-11-17T23:50:09.756Z,33.70
2022-11-17T23:52:37.359Z,30.00
2022-11-17T23:55:05.341Z,32.40
2022-11-17T23:57:32.952Z,32.50
